Time;durP1;ratioP1;P1;durP2;ratioP2;P2;SDS_P1;SDS_P2;PMS_P1;PMS_P2;Temp;Humidity;BMP_temperature;BMP_pressure;BME280_temperature;BME280_humidity;BME280_pressure;Samples;Min_cycle;Max_cycle;Signal;HPM_P1;HPM_P2
2022/12/29 00:01:34;;;;;;;7.50;2.30;;;;;;;;;;106906;1306;22126;-77
2022/12/29 00:04:01;;;;;;;8.20;2.50;;;;;;;;;;106878;1307;22053;-76
2022/12/29 00:06:28;;;;;;;6.20;2.10;;;;;;;;;;106635;1310;22068;-76
2022/12/29 00:08:54;;;;;;;8.20;2.30;;;;;;;;;;106686;1302;22631;-78
2022/12/29 00:11:22;;;;;;;6.90;2.60;;;;;;;;;;106710;1309;22776;-77
2022/12/29 00:16:35;;;;;;;9.60;2.90;;;;;;;;;;106860;1307;22677;-76
2022/12/29 00:19:03;;;;;;;9.20;2.90;;;;;;;;;;106732;1310;22126;-77
2022/12/29 00:35:40;;;;;;;6.90;2.70;;;;;;;;;;106758;1309;22138;-78
2022/12/29 00:46:24;;;;;;;8.40;2.80;;;;;;;;;;106766;1309;21989;-77
2022/12/29 00:51:36;;;;;;;10.60;3.20;;;;;;;;;;107055;1288;22095;-77
2022/12/29 00:54:03;;;;;;;9.00;2.50;;;;;;;;;;106727;1309;22054;-78
2022/12/29 00:56:29;;;;;;;8.10;2.40;;;;;;;;;;106813;1300;22121;-78
2022/12/29 00:58:59;;;;;;;6.70;2.30;;;;;;;;;;106851;1309;22139;-77
2022/12/29 01:01:26;;;;;;;8.70;2.50;;;;;;;;;;106705;1302;22072;-78
2022/12/29 01:03:54;;;;;;;7.80;2.40;;;;;;;;;;106709;1309;21971;-77
2022/12/29 01:06:22;;;;;;;8.30;2.90;;;;;;;;;;106650;1310;21969;-77
2022/12/29 01:10:09;;;;;;;6.40;2.20;;;;;;;;;;106679;1309;22076;-77
2022/12/29 01:11:40;;;;;;;7.70;1.90;;;;;;;;;;106673;1309;22069;-77
2022/12/29 01:14:08;;;;;;;6.90;2.30;;;;;;;;;;106702;1309;22063;-77
2022/12/29 01:16:38;;;;;;;9.10;2.30;;;;;;;;;;106669;1304;22764;-75
2022/12/29 01:19:06;;;;;;;7.10;2.40;;;;;;;;;;106750;1309;22807;-78
2022/12/29 01:21:33;;;;;;;6.80;2.10;;;;;;;;;;107065;1302;22058;-77
2022/12/29 01:24:01;;;;;;;7.70;2.40;;;;;;;;;;106693;1309;22068;-77
2022/12/29 01:26:28;;;;;;;7.20;2.10;;;;;;;;;;106929;1296;22661;-78
2022/12/29 01:28:56;;;;;;;7.50;2.00;;;;;;;;;;106671;1309;22073;-77
2022/12/29 01:31:23;;;;;;;6.90;1.80;;;;;;;;;;106707;1309;22095;-76
2022/12/29 01:33:51;;;;;;;7.40;1.80;;;;;;;;;;106688;1309;21931;-77
2022/12/29 01:36:18;;;;;;;5.70;1.70;;;;;;;;;;106690;1309;21662;-78
2022/12/29 01:38:46;;;;;;;7.70;1.90;;;;;;;;;;106708;1309;22087;-77
2022/12/29 01:41:13;;;;;;;8.60;2.80;;;;;;;;;;107037;1295;22037;-78
2022/12/29 01:43:45;;;;;;;8.40;2.60;;;;;;;;;;106736;1302;22691;-77
2022/12/29 01:46:28;;;;;;;6.00;1.70;;;;;;;;;;106613;1310;22350;-76
2022/12/29 01:49:06;;;;;;;5.50;1.90;;;;;;;;;;106628;1309;22069;-77
2022/12/29 01:51:40;;;;;;;6.90;1.70;;;;;;;;;;106672;1308;21939;-76
2022/12/29 01:54:11;;;;;;;7.90;2.10;;;;;;;;;;106656;1309;22644;-77
2022/12/29 01:56:39;;;;;;;5.70;1.90;;;;;;;;;;106679;1303;22257;-77
2022/12/29 01:59:10;;;;;;;7.10;1.90;;;;;;;;;;106677;1309;22116;-79
2022/12/29 02:01:38;;;;;;;7.20;2.30;;;;;;;;;;106660;1310;22085;-78
2022/12/29 02:04:09;;;;;;;7.20;2.00;;;;;;;;;;106635;1305;22118;-77
2022/12/29 02:06:43;;;;;;;7.80;2.20;;;;;;;;;;106631;1309;22109;-77
2022/12/29 02:09:11;;;;;;;7.20;2.20;;;;;;;;;;106498;1312;22067;-78
2022/12/29 02:11:42;;;;;;;7.10;2.40;;;;;;;;;;106583;1312;22163;-76
2022/12/29 02:14:11;;;;;;;6.20;2.10;;;;;;;;;;106570;1312;22084;-77
2022/12/29 02:16:59;;;;;;;7.90;2.20;;;;;;;;;;106563;1312;22002;-77
2022/12/29 02:19:48;;;;;;;6.60;1.90;;;;;;;;;;106641;1310;22000;-76
2022/12/29 02:22:28;;;;;;;5.90;1.80;;;;;;;;;;106628;1301;22047;-77
2022/12/29 02:25:10;;;;;;;7.10;1.80;;;;;;;;;;106657;1310;22081;-76
2022/12/29 02:27:57;;;;;;;8.60;2.50;;;;;;;;;;106575;1301;22881;-77
2022/12/29 02:30:43;;;;;;;6.50;2.10;;;;;;;;;;106582;1312;22099;-77
2022/12/29 02:33:24;;;;;;;8.90;2.40;;;;;;;;;;106557;1312;22071;-77
2022/12/29 02:35:57;;;;;;;7.60;2.60;;;;;;;;;;106570;1312;22294;-77
2022/12/29 02:38:43;;;;;;;9.10;2.10;;;;;;;;;;106496;1310;22137;-77
2022/12/29 02:41:23;;;;;;;8.00;2.10;;;;;;;;;;106664;1305;22069;-76
2022/12/29 02:44:12;;;;;;;7.80;2.00;;;;;;;;;;106578;1310;22292;-77
2022/12/29 02:46:48;;;;;;;5.30;1.40;;;;;;;;;;106674;1310;22557;-76
2022/12/29 02:49:41;;;;;;;5.50;1.60;;;;;;;;;;106590;1312;22089;-78
2022/12/29 02:52:31;;;;;;;6.30;1.80;;;;;;;;;;106422;1312;22103;-77
2022/12/29 02:55:00;;;;;;;6.30;1.60;;;;;;;;;;106578;1312;22091;-77
2022/12/29 02:57:34;;;;;;;6.70;1.70;;;;;;;;;;106555;1312;22103;-78
2022/12/29 03:10:29;;;;;;;7.10;1.60;;;;;;;;;;100415;1339;544934;-84
2022/12/29 03:16:15;;;;;;;4.10;1.40;;;;;;;;;;102363;1313;22489;-86
2022/12/29 03:18:58;;;;;;;7.20;2.10;;;;;;;;;;102605;1317;25307;-81
2022/12/29 03:24:25;;;;;;;6.30;1.60;;;;;;;;;;102349;1307;1557312;-85
2022/12/29 03:26:53;;;;;;;6.80;1.60;;;;;;;;;;103532;1308;22506;-79
2022/12/29 03:29:20;;;;;;;6.20;1.80;;;;;;;;;;103507;1307;22502;-79
2022/12/29 03:31:48;;;;;;;6.00;1.60;;;;;;;;;;103509;1305;22499;-76
2022/12/29 03:34:16;;;;;;;6.80;1.70;;;;;;;;;;103522;1295;22514;-85
2022/12/29 03:36:47;;;;;;;5.10;1.40;;;;;;;;;;103552;1310;25422;-82
2022/12/29 03:39:14;;;;;;;5.10;1.50;;;;;;;;;;106889;1310;22071;-76
2022/12/29 03:41:43;;;;;;;5.80;1.40;;;;;;;;;;106751;1305;22177;-78
2022/12/29 03:44:10;;;;;;;6.40;1.50;;;;;;;;;;106769;1310;22133;-77
2022/12/29 03:46:37;;;;;;;7.00;1.80;;;;;;;;;;106748;1308;22836;-76
2022/12/29 03:49:03;;;;;;;7.70;2.00;;;;;;;;;;107085;1300;22834;-77
2022/12/29 03:51:30;;;;;;;8.70;1.60;;;;;;;;;;106898;1307;22889;-76
2022/12/29 03:53:57;;;;;;;6.30;1.90;;;;;;;;;;107225;1285;22027;-77
2022/12/29 03:56:23;;;;;;;8.00;1.70;;;;;;;;;;106932;1307;22086;-77
2022/12/29 03:58:50;;;;;;;6.80;1.80;;;;;;;;;;106931;1307;22132;-78
2022/12/29 04:01:23;;;;;;;6.00;1.70;;;;;;;;;;107119;1288;22152;-78
2022/12/29 04:03:50;;;;;;;6.10;1.70;;;;;;;;;;106866;1290;21809;-77
2022/12/29 04:06:17;;;;;;;6.00;2.00;;;;;;;;;;106738;1307;22076;-78
2022/12/29 04:08:55;;;;;;;5.60;1.60;;;;;;;;;;106865;1310;22091;-76
2022/12/29 04:11:22;;;;;;;6.50;1.70;;;;;;;;;;107051;1302;22082;-78
2022/12/29 04:13:49;;;;;;;6.20;1.80;;;;;;;;;;107148;1292;22138;-78
2022/12/29 04:16:19;;;;;;;5.90;1.60;;;;;;;;;;106910;1307;22086;-77
2022/12/29 04:18:46;;;;;;;6.60;1.70;;;;;;;;;;106925;1307;22073;-76
2022/12/29 04:21:12;;;;;;;6.30;1.90;;;;;;;;;;106834;1307;22068;-77
2022/12/29 04:23:41;;;;;;;5.20;1.60;;;;;;;;;;106736;1309;22124;-76
2022/12/29 04:26:09;;;;;;;6.20;1.60;;;;;;;;;;106732;1308;22080;-76
2022/12/29 04:28:46;;;;;;;9.60;2.30;;;;;;;;;;106691;1300;22172;-77
2022/12/29 04:31:48;;;;;;;5.80;1.70;;;;;;;;;;106695;1295;22196;-78
2022/12/29 04:34:15;;;;;;;9.70;1.70;;;;;;;;;;106850;1307;22608;-77
2022/12/29 04:36:41;;;;;;;6.30;1.90;;;;;;;;;;107156;1286;22055;-77
2022/12/29 04:39:08;;;;;;;5.50;1.90;;;;;;;;;;107129;1295;22769;-76
2022/12/29 04:41:36;;;;;;;7.10;1.80;;;;;;;;;;106745;1302;22076;-76
2022/12/29 04:44:03;;;;;;;8.20;2.00;;;;;;;;;;106674;1310;22744;-79
2022/12/29 04:46:47;;;;;;;8.10;2.30;;;;;;;;;;106685;1310;22101;-77
2022/12/29 04:49:33;;;;;;;6.70;1.90;;;;;;;;;;106989;1302;22055;-77
2022/12/29 04:52:15;;;;;;;5.80;1.80;;;;;;;;;;107027;1301;22081;-77
2022/12/29 04:54:44;;;;;;;6.50;1.70;;;;;;;;;;106786;1307;22075;-77
2022/12/29 04:57:16;;;;;;;5.70;1.70;;;;;;;;;;106920;1307;22093;-78
2022/12/29 04:59:46;;;;;;;6.60;2.10;;;;;;;;;;107160;1295;22074;-77
2022/12/29 05:02:15;;;;;;;5.70;1.80;;;;;;;;;;107071;1300;22055;-77
2022/12/29 05:04:42;;;;;;;5.80;1.80;;;;;;;;;;106701;1310;22056;-78
2022/12/29 05:07:08;;;;;;;6.50;2.00;;;;;;;;;;106690;1308;22082;-77
2022/12/29 05:09:35;;;;;;;6.40;2.10;;;;;;;;;;106961;1295;22769;-77
2022/12/29 05:12:02;;;;;;;6.00;1.90;;;;;;;;;;106817;1307;22543;-77
2022/12/29 05:14:29;;;;;;;6.80;2.20;;;;;;;;;;106918;1307;22775;-75
2022/12/29 05:20:20;;;;;;;6.30;1.60;;;;;;;;;;107019;1306;22113;-77
2022/12/29 05:22:46;;;;;;;6.80;1.80;;;;;;;;;;106849;1307;22091;-76
2022/12/29 05:25:14;;;;;;;6.00;2.00;;;;;;;;;;106765;1307;22084;-76
2022/12/29 05:28:01;;;;;;;7.60;2.40;;;;;;;;;;106543;1308;22059;-77
2022/12/29 05:30:50;;;;;;;8.80;2.70;;;;;;;;;;106930;1307;22133;-77
2022/12/29 05:33:18;;;;;;;6.30;2.20;;;;;;;;;;106902;1307;22081;-77
2022/12/29 05:35:45;;;;;;;10.10;4.50;;;;;;;;;;106873;1307;22111;-76
2022/12/29 05:38:12;;;;;;;7.40;2.60;;;;;;;;;;106915;1307;21947;-77
2022/12/29 05:40:39;;;;;;;9.30;3.50;;;;;;;;;;106998;1307;22845;-77
2022/12/29 05:43:14;;;;;;;5.90;2.20;;;;;;;;;;106774;1307;21956;-76
2022/12/29 05:46:01;;;;;;;7.40;2.10;;;;;;;;;;107125;1303;22093;-76
2022/12/29 05:48:54;;;;;;;7.30;2.10;;;;;;;;;;106973;1304;22335;-76
2022/12/29 05:54:49;;;;;;;6.60;2.20;;;;;;;;;;107449;1297;22709;-77
2022/12/29 05:57:18;;;;;;;7.40;2.30;;;;;;;;;;107144;1304;22118;-75
2022/12/29 05:59:49;;;;;;;7.00;2.10;;;;;;;;;;107137;1304;22103;-77
2022/12/29 06:02:15;;;;;;;6.20;2.00;;;;;;;;;;107105;1299;22065;-77
2022/12/29 06:04:42;;;;;;;5.90;1.90;;;;;;;;;;107148;1283;22748;-76
2022/12/29 06:07:09;;;;;;;5.40;1.90;;;;;;;;;;106985;1304;22115;-77
2022/12/29 06:09:42;;;;;;;6.60;2.10;;;;;;;;;;106933;1307;21951;-76
2022/12/29 06:12:10;;;;;;;6.50;2.00;;;;;;;;;;106929;1306;22815;-77
2022/12/29 06:14:38;;;;;;;6.40;2.20;;;;;;;;;;106954;1304;22052;-77
2022/12/29 06:17:05;;;;;;;6.40;1.90;;;;;;;;;;106978;1304;22131;-77
2022/12/29 06:19:32;;;;;;;8.20;2.50;;;;;;;;;;106993;1304;22109;-77
2022/12/29 06:21:59;;;;;;;6.40;2.00;;;;;;;;;;107127;1304;22635;-77
2022/12/29 06:24:25;;;;;;;6.40;2.00;;;;;;;;;;107066;1304;22783;-76
2022/12/29 06:26:53;;;;;;;6.90;2.10;;;;;;;;;;107067;1304;21967;-78
2022/12/29 06:29:20;;;;;;;6.80;1.90;;;;;;;;;;106943;1304;22280;-76
2022/12/29 06:31:48;;;;;;;7.90;2.30;;;;;;;;;;107078;1298;22089;-76
2022/12/29 06:34:15;;;;;;;8.20;2.10;;;;;;;;;;107113;1298;22061;-75
2022/12/29 06:36:42;;;;;;;7.50;2.10;;;;;;;;;;106980;1304;21791;-76
2022/12/29 06:39:09;;;;;;;8.50;2.30;;;;;;;;;;106986;1304;22066;-76
2022/12/29 06:41:36;;;;;;;9.10;2.60;;;;;;;;;;107311;1296;22016;-76
2022/12/29 06:44:09;;;;;;;9.60;2.60;;;;;;;;;;107112;1296;22078;-75
2022/12/29 06:46:57;;;;;;;10.70;2.90;;;;;;;;;;107136;1304;22137;-77
2022/12/29 06:49:24;;;;;;;8.50;2.30;;;;;;;;;;107106;1304;21984;-75
2022/12/29 06:51:50;;;;;;;9.10;2.80;;;;;;;;;;107110;1304;22071;-76
2022/12/29 06:54:17;;;;;;;9.80;3.50;;;;;;;;;;106942;1291;22220;-77
2022/12/29 06:56:44;;;;;;;7.70;2.80;;;;;;;;;;107114;1304;22053;-77
2022/12/29 06:59:10;;;;;;;7.30;2.70;;;;;;;;;;107436;1289;21919;-76
2022/12/29 07:01:37;;;;;;;9.20;2.70;;;;;;;;;;107083;1290;22778;-77
2022/12/29 07:04:04;;;;;;;17.00;3.50;;;;;;;;;;107059;1304;23307;-78
2022/12/29 07:06:31;;;;;;;9.10;2.50;;;;;;;;;;106805;1307;22066;-76
2022/12/29 07:08:57;;;;;;;8.60;3.00;;;;;;;;;;107083;1307;22773;-76
2022/12/29 07:11:24;;;;;;;8.30;3.00;;;;;;;;;;107097;1304;22096;-77
2022/12/29 07:13:51;;;;;;;10.20;3.00;;;;;;;;;;107106;1303;22078;-78
2022/12/29 07:16:18;;;;;;;10.20;3.40;;;;;;;;;;106929;1304;22093;-77
2022/12/29 07:18:45;;;;;;;9.10;3.10;;;;;;;;;;107091;1302;22103;-76
2022/12/29 07:21:12;;;;;;;11.00;3.10;;;;;;;;;;107305;1297;22082;-76
2022/12/29 07:23:39;;;;;;;11.50;4.30;;;;;;;;;;106966;1304;22566;-75
2022/12/29 07:26:06;;;;;;;10.30;3.30;;;;;;;;;;106988;1305;21880;-77
2022/12/29 07:28:37;;;;;;;10.40;3.20;;;;;;;;;;106985;1307;22066;-76
2022/12/29 07:31:05;;;;;;;10.50;3.10;;;;;;;;;;107107;1306;22698;-76
2022/12/29 07:33:32;;;;;;;7.30;2.50;;;;;;;;;;106969;1304;22787;-76
2022/12/29 07:35:59;;;;;;;9.30;3.30;;;;;;;;;;107101;1304;22065;-74
2022/12/29 07:38:25;;;;;;;9.10;2.70;;;;;;;;;;107097;1304;22064;-77
2022/12/29 07:40:56;;;;;;;11.30;3.30;;;;;;;;;;107086;1304;21944;-76
2022/12/29 07:43:22;;;;;;;9.10;2.70;;;;;;;;;;107159;1304;22066;-77
2022/12/29 07:46:09;;;;;;;10.60;2.40;;;;;;;;;;107013;1306;22824;-75
2022/12/29 07:48:36;;;;;;;8.40;2.60;;;;;;;;;;107103;1304;22648;-75
2022/12/29 07:51:02;;;;;;;10.50;2.80;;;;;;;;;;107321;1282;22099;-76
2022/12/29 07:53:29;;;;;;;6.70;2.00;;;;;;;;;;107100;1305;22076;-76
2022/12/29 07:55:56;;;;;;;8.30;2.10;;;;;;;;;;106928;1304;22111;-76
2022/12/29 07:58:23;;;;;;;9.30;3.00;;;;;;;;;;107143;1304;22103;-76
2022/12/29 08:00:59;;;;;;;9.80;2.90;;;;;;;;;;107078;1304;22078;-77
2022/12/29 08:03:26;;;;;;;10.20;2.50;;;;;;;;;;107104;1299;22040;-76
2022/12/29 08:05:53;;;;;;;8.30;2.60;;;;;;;;;;106977;1306;22471;-76
2022/12/29 08:08:20;;;;;;;9.90;2.50;;;;;;;;;;107035;1306;21970;-77
2022/12/29 08:10:47;;;;;;;9.00;3.00;;;;;;;;;;106920;1307;23124;-76
2022/12/29 08:13:14;;;;;;;9.10;2.70;;;;;;;;;;107301;1297;22072;-78
2022/12/29 08:15:41;;;;;;;10.40;2.50;;;;;;;;;;106908;1307;22115;-76
2022/12/29 08:18:07;;;;;;;9.20;2.70;;;;;;;;;;107125;1304;22837;-78
2022/12/29 08:20:34;;;;;;;8.80;2.40;;;;;;;;;;107023;1304;22052;-77
2022/12/29 08:23:02;;;;;;;7.60;2.50;;;;;;;;;;107125;1304;22101;-77
2022/12/29 08:25:29;;;;;;;8.90;3.00;;;;;;;;;;107051;1304;22094;-77
2022/12/29 08:27:56;;;;;;;13.80;2.90;;;;;;;;;;106903;1307;22090;-77
2022/12/29 08:30:23;;;;;;;7.70;2.70;;;;;;;;;;107040;1307;21957;-77
2022/12/29 08:32:50;;;;;;;8.80;2.20;;;;;;;;;;106797;1305;22064;-77
2022/12/29 08:35:16;;;;;;;11.40;2.80;;;;;;;;;;107111;1287;22678;-79
2022/12/29 08:37:44;;;;;;;9.60;2.20;;;;;;;;;;107146;1298;22039;-77
2022/12/29 08:40:11;;;;;;;7.80;2.10;;;;;;;;;;107329;1297;21875;-79
2022/12/29 08:42:38;;;;;;;7.10;2.20;;;;;;;;;;107182;1285;22084;-77
2022/12/29 08:45:05;;;;;;;10.30;2.90;;;;;;;;;;107331;1288;22739;-78
2022/12/29 08:47:32;;;;;;;7.10;2.20;;;;;;;;;;106950;1305;22778;-77
2022/12/29 08:49:59;;;;;;;7.20;2.50;;;;;;;;;;106898;1307;22130;-80
2022/12/29 08:52:26;;;;;;;7.50;2.10;;;;;;;;;;106948;1307;22684;-78
2022/12/29 08:54:53;;;;;;;8.00;2.40;;;;;;;;;;106935;1307;21959;-78
2022/12/29 08:57:20;;;;;;;9.30;2.30;;;;;;;;;;107047;1298;22062;-78
2022/12/29 08:59:58;;;;;;;9.70;2.50;;;;;;;;;;107026;1304;22079;-78
2022/12/29 09:02:25;;;;;;;6.90;2.40;;;;;;;;;;106971;1307;22100;-75
2022/12/29 09:04:53;;;;;;;7.10;2.10;;;;;;;;;;106990;1307;22868;-79
2022/12/29 09:07:20;;;;;;;10.60;2.70;;;;;;;;;;106886;1307;22888;-76
2022/12/29 09:09:48;;;;;;;8.70;3.20;;;;;;;;;;106921;1306;22161;-77
2022/12/29 09:12:16;;;;;;;9.60;2.50;;;;;;;;;;106735;1307;22649;-77
2022/12/29 09:14:45;;;;;;;8.40;2.80;;;;;;;;;;106873;1307;22132;-78
2022/12/29 09:19:58;;;;;;;9.70;2.90;;;;;;;;;;106980;1307;22072;-79
2022/12/29 09:22:26;;;;;;;8.10;2.80;;;;;;;;;;107133;1294;22121;-76
2022/12/29 09:24:53;;;;;;;10.20;3.70;;;;;;;;;;106922;1289;22220;-77
2022/12/29 09:27:21;;;;;;;10.90;3.90;;;;;;;;;;106904;1307;22071;-76
2022/12/29 09:29:48;;;;;;;12.50;4.10;;;;;;;;;;106910;1306;22728;-76
2022/12/29 09:32:16;;;;;;;12.40;2.90;;;;;;;;;;106769;1307;22071;-78
2022/12/29 09:34:43;;;;;;;10.30;2.90;;;;;;;;;;106870;1307;22128;-77
2022/12/29 09:37:11;;;;;;;10.90;3.40;;;;;;;;;;106898;1306;22134;-77
2022/12/29 09:39:38;;;;;;;9.30;3.00;;;;;;;;;;106903;1307;22174;-78
2022/12/29 09:42:25;;;;;;;9.50;3.00;;;;;;;;;;106988;1307;22125;-78
2022/12/29 09:45:11;;;;;;;12.60;3.50;;;;;;;;;;106931;1307;21977;-76
2022/12/29 09:47:41;;;;;;;13.10;4.50;;;;;;;;;;106934;1299;22078;-77
2022/12/29 09:50:18;;;;;;;13.10;4.20;;;;;;;;;;106919;1307;22101;-77
2022/12/29 09:53:05;;;;;;;11.10;4.20;;;;;;;;;;106957;1306;22088;-78
2022/12/29 09:55:38;;;;;;;8.80;3.20;;;;;;;;;;106755;1306;22800;-76
2022/12/29 09:58:13;;;;;;;8.60;2.70;;;;;;;;;;106934;1299;22093;-77
2022/12/29 10:00:55;;;;;;;8.30;2.90;;;;;;;;;;106909;1307;22078;-77
2022/12/29 10:03:24;;;;;;;9.30;2.90;;;;;;;;;;106959;1306;22076;-76
2022/12/29 10:06:05;;;;;;;11.50;3.60;;;;;;;;;;106788;1307;23021;-78
2022/12/29 10:08:45;;;;;;;15.50;4.20;;;;;;;;;;106811;1307;22286;-80
2022/12/29 10:11:21;;;;;;;11.40;4.10;;;;;;;;;;106800;1301;22055;-76
2022/12/29 10:14:15;;;;;;;12.90;4.40;;;;;;;;;;106899;1307;22106;-76
2022/12/29 10:17:03;;;;;;;9.80;3.70;;;;;;;;;;106788;1307;22132;-77
2022/12/29 10:19:47;;;;;;;11.20;3.30;;;;;;;;;;106919;1299;22798;-79
2022/12/29 10:22:26;;;;;;;10.30;3.60;;;;;;;;;;106946;1306;22903;-76
2022/12/29 10:24:56;;;;;;;10.80;3.30;;;;;;;;;;106979;1306;22970;-75
2022/12/29 10:27:26;;;;;;;9.80;3.40;;;;;;;;;;106886;1307;22083;-78
2022/12/29 10:29:56;;;;;;;11.70;3.30;;;;;;;;;;106720;1307;22111;-77
2022/12/29 10:32:32;;;;;;;10.00;3.50;;;;;;;;;;106846;1307;22090;-77
2022/12/29 10:35:23;;;;;;;10.10;2.90;;;;;;;;;;106906;1307;22064;-77
2022/12/29 10:38:10;;;;;;;9.10;3.40;;;;;;;;;;106840;1307;22894;-76
2022/12/29 10:40:59;;;;;;;8.90;2.80;;;;;;;;;;106914;1306;22126;-77
2022/12/29 10:43:48;;;;;;;10.70;3.40;;;;;;;;;;106894;1307;22097;-77
2022/12/29 10:46:23;;;;;;;9.50;3.00;;;;;;;;;;106749;1304;22090;-76
2022/12/29 10:48:52;;;;;;;10.60;3.70;;;;;;;;;;107063;1288;22341;-77
2022/12/29 10:51:24;;;;;;;9.90;3.40;;;;;;;;;;106722;1307;22867;-78
2022/12/29 10:54:14;;;;;;;8.60;3.10;;;;;;;;;;106844;1307;22348;-77
2022/12/29 10:57:05;;;;;;;9.80;3.50;;;;;;;;;;106775;1300;22077;-79
2022/12/29 10:59:36;;;;;;;10.40;3.30;;;;;;;;;;106919;1306;22140;-77
2022/12/29 11:09:09;;;;;;;8.80;3.10;;;;;;;;;;100782;1332;545030;-83
2022/12/29 11:11:37;;;;;;;13.20;4.40;;;;;;;;;;103228;1305;23336;-81
2022/12/29 11:14:10;;;;;;;11.80;4.80;;;;;;;;;;103335;1310;22473;-80
2022/12/29 11:16:37;;;;;;;9.30;3.50;;;;;;;;;;103288;1295;25394;-81
2022/12/29 11:19:03;;;;;;;8.50;3.20;;;;;;;;;;103246;1310;22491;-85
2022/12/29 11:21:40;;;;;;;9.10;2.90;;;;;;;;;;102334;1310;1616829;-79
2022/12/29 11:24:22;;;;;;;8.30;2.70;;;;;;;;;;103187;1294;22523;-81
2022/12/29 11:26:52;;;;;;;8.50;3.90;;;;;;;;;;103333;1309;22473;-84
2022/12/29 11:29:22;;;;;;;7.90;3.10;;;;;;;;;;103560;1283;23117;-78
2022/12/29 11:31:50;;;;;;;11.40;3.20;;;;;;;;;;103514;1307;22543;-79
2022/12/29 11:34:33;;;;;;;8.10;3.10;;;;;;;;;;103529;1306;22469;-82
2022/12/29 11:37:11;;;;;;;10.40;2.90;;;;;;;;;;103545;1283;25339;-82
2022/12/29 11:39:41;;;;;;;8.00;2.70;;;;;;;;;;103689;1275;25358;-78
2022/12/29 11:42:13;;;;;;;9.90;3.30;;;;;;;;;;103720;1289;25206;-79
2022/12/29 11:44:45;;;;;;;12.00;4.30;;;;;;;;;;103805;1305;22489;-79
2022/12/29 11:47:29;;;;;;;13.90;5.20;;;;;;;;;;103894;1289;22460;-82
2022/12/29 11:50:00;;;;;;;12.60;5.20;;;;;;;;;;103900;1282;23842;-80
2022/12/29 11:52:35;;;;;;;10.80;4.00;;;;;;;;;;103789;1272;22545;-81
2022/12/29 11:55:04;;;;;;;13.90;5.00;;;;;;;;;;103735;1292;22625;-79
2022/12/29 11:57:33;;;;;;;17.00;5.10;;;;;;;;;;103713;1282;22492;-80
2022/12/29 12:00:01;;;;;;;12.70;4.30;;;;;;;;;;103845;1289;24263;-80
2022/12/29 12:02:29;;;;;;;10.70;4.20;;;;;;;;;;103773;1282;22477;-80
2022/12/29 12:05:00;;;;;;;14.00;5.00;;;;;;;;;;103601;1298;22474;-82
2022/12/29 12:07:41;;;;;;;13.00;4.60;;;;;;;;;;103604;1282;25268;-80
2022/12/29 12:10:14;;;;;;;12.20;4.90;;;;;;;;;;103527;1298;25389;-84
2022/12/29 12:12:53;;;;;;;11.90;4.30;;;;;;;;;;103578;1306;25623;-78
2022/12/29 12:15:27;;;;;;;10.10;3.50;;;;;;;;;;103574;1305;23865;-77
2022/12/29 12:18:22;;;;;;;12.90;4.00;;;;;;;;;;103610;1288;23073;-79
2022/12/29 12:20:54;;;;;;;11.40;4.70;;;;;;;;;;103450;1289;22470;-78
2022/12/29 12:23:24;;;;;;;13.00;4.30;;;;;;;;;;103337;1292;22469;-85
2022/12/29 12:25:57;;;;;;;11.70;4.30;;;;;;;;;;103532;1282;23739;-79
2022/12/29 12:28:39;;;;;;;12.60;4.70;;;;;;;;;;103520;1306;22598;-83
2022/12/29 12:31:13;;;;;;;10.80;4.50;;;;;;;;;;103528;1307;22926;-86
2022/12/29 12:33:42;;;;;;;11.50;4.90;;;;;;;;;;103531;1307;24406;-82
2022/12/29 12:36:09;;;;;;;12.50;4.60;;;;;;;;;;103876;1281;24234;-80
2022/12/29 12:38:36;;;;;;;12.20;4.70;;;;;;;;;;103728;1287;24226;-80
2022/12/29 12:41:09;;;;;;;11.80;4.70;;;;;;;;;;103505;1275;25390;-84
2022/12/29 12:43:45;;;;;;;14.90;5.30;;;;;;;;;;103617;1298;22470;-81
2022/12/29 12:46:30;;;;;;;13.70;5.30;;;;;;;;;;103668;1290;25262;-79
2022/12/29 12:49:00;;;;;;;12.80;5.20;;;;;;;;;;103643;1275;22540;-79
2022/12/29 12:51:27;;;;;;;16.60;5.60;;;;;;;;;;103545;1285;25210;-79
2022/12/29 12:53:56;;;;;;;13.20;5.20;;;;;;;;;;103669;1284;22502;-80
2022/12/29 12:56:23;;;;;;;13.10;5.10;;;;;;;;;;103676;1285;24321;-81
2022/12/29 12:58:50;;;;;;;13.00;5.10;;;;;;;;;;103801;1291;22567;-79
2022/12/29 13:01:29;;;;;;;13.70;5.60;;;;;;;;;;103694;1291;22566;-78
2022/12/29 13:04:04;;;;;;;13.00;5.70;;;;;;;;;;103651;1299;24315;-80
2022/12/29 13:06:31;;;;;;;14.00;6.20;;;;;;;;;;103679;1288;22499;-80
2022/12/29 13:09:13;;;;;;;15.20;6.20;;;;;;;;;;103579;1283;22452;-78
2022/12/29 13:11:51;;;;;;;13.60;5.50;;;;;;;;;;103499;1306;22479;-79
2022/12/29 13:14:27;;;;;;;14.40;5.70;;;;;;;;;;103607;1290;24707;-79
2022/12/29 13:17:17;;;;;;;11.50;5.10;;;;;;;;;;103521;1282;22480;-81
2022/12/29 13:20:02;;;;;;;12.40;5.10;;;;;;;;;;103506;1282;22500;-79
2022/12/29 13:22:34;;;;;;;12.80;5.50;;;;;;;;;;103658;1285;22487;-80
2022/12/29 13:25:07;;;;;;;12.60;5.10;;;;;;;;;;103589;1304;23195;-78
2022/12/29 13:27:53;;;;;;;10.90;4.60;;;;;;;;;;103554;1282;22469;-78
2022/12/29 13:30:21;;;;;;;12.40;4.80;;;;;;;;;;103585;1288;25210;-81
2022/12/29 13:32:58;;;;;;;11.20;4.80;;;;;;;;;;103534;1291;22485;-79
2022/12/29 13:35:32;;;;;;;14.10;5.90;;;;;;;;;;103477;1300;24320;-80
2022/12/29 13:38:05;;;;;;;14.20;5.70;;;;;;;;;;103551;1305;23158;-80
2022/12/29 13:40:34;;;;;;;12.90;5.60;;;;;;;;;;103583;1282;22820;-81
2022/12/29 13:56:26;;;;;;;12.70;5.60;;;;;;;;;;100348;1334;544790;-83
2022/12/29 13:58:57;;;;;;;14.50;5.40;;;;;;;;;;102549;1319;24251;-80
2022/12/29 14:01:30;;;;;;;16.60;7.00;;;;;;;;;;102509;1311;22994;-84
2022/12/29 14:03:57;;;;;;;14.70;6.30;;;;;;;;;;102401;1319;25229;-81
2022/12/29 14:06:24;;;;;;;16.80;7.20;;;;;;;;;;102358;1320;22485;-86
2022/12/29 14:09:01;;;;;;;16.00;6.70;;;;;;;;;;102450;1320;22491;-84
2022/12/29 14:11:44;;;;;;;17.40;7.80;;;;;;;;;;100589;1331;545077;-86
2022/12/29 14:14:17;;;;;;;14.80;6.50;;;;;;;;;;102499;1319;23886;-85
2022/12/29 14:16:45;;;;;;;17.00;7.50;;;;;;;;;;102450;1319;25177;-84
2022/12/29 14:19:33;;;;;;;14.20;6.00;;;;;;;;;;102537;1304;23028;-84
2022/12/29 14:22:02;;;;;;;15.00;6.30;;;;;;;;;;102291;1321;25378;-81
2022/12/29 14:24:34;;;;;;;15.90;6.80;;;;;;;;;;101092;1293;1636336;-85
2022/12/29 14:27:21;;;;;;;16.70;6.70;;;;;;;;;;103377;1309;22505;-81
2022/12/29 14:29:49;;;;;;;15.80;7.10;;;;;;;;;;103366;1309;24310;-81
2022/12/29 14:32:25;;;;;;;16.10;7.10;;;;;;;;;;103254;1305;22549;-86
2022/12/29 14:34:52;;;;;;;14.70;6.50;;;;;;;;;;103539;1282;24236;-83
2022/12/29 14:37:26;;;;;;;15.80;7.10;;;;;;;;;;103500;1307;22515;-82
2022/12/29 14:40:05;;;;;;;17.50;7.60;;;;;;;;;;103627;1307;22923;-81
2022/12/29 14:42:32;;;;;;;22.80;7.50;;;;;;;;;;103263;1287;23992;-81
2022/12/29 14:45:07;;;;;;;17.90;7.40;;;;;;;;;;103083;1304;22603;-82
2022/12/29 14:47:36;;;;;;;14.80;6.60;;;;;;;;;;103320;1309;22471;-86
2022/12/29 14:50:17;;;;;;;15.10;7.00;;;;;;;;;;103063;1309;22489;-81
2022/12/29 14:52:47;;;;;;;16.40;6.80;;;;;;;;;;103563;1303;24310;-83
2022/12/29 14:55:16;;;;;;;17.80;7.10;;;;;;;;;;103436;1307;22477;-84
2022/12/29 14:57:44;;;;;;;19.40;6.50;;;;;;;;;;103374;1292;25854;-79
2022/12/29 15:00:11;;;;;;;15.40;6.70;;;;;;;;;;103169;1307;22482;-81
2022/12/29 15:02:40;;;;;;;14.10;6.50;;;;;;;;;;103488;1307;22482;-80
2022/12/29 15:05:13;;;;;;;20.10;7.00;;;;;;;;;;103206;1308;22539;-80
2022/12/29 15:07:40;;;;;;;16.30;7.70;;;;;;;;;;103227;1307;24241;-79
2022/12/29 15:10:13;;;;;;;16.50;8.00;;;;;;;;;;102974;1309;25314;-80
2022/12/29 15:12:52;;;;;;;19.80;8.30;;;;;;;;;;103141;1306;22487;-79
2022/12/29 15:15:19;;;;;;;19.20;8.40;;;;;;;;;;103092;1303;24332;-80
2022/12/29 15:17:46;;;;;;;19.60;9.50;;;;;;;;;;103215;1308;22502;-82
2022/12/29 15:20:16;;;;;;;20.70;9.60;;;;;;;;;;103015;1304;23010;-79
2022/12/29 15:22:44;;;;;;;22.20;8.90;;;;;;;;;;103260;1298;22550;-79
2022/12/29 15:25:15;;;;;;;19.00;8.20;;;;;;;;;;103206;1303;25280;-80
2022/12/29 15:34:43;;;;;;;17.90;8.60;;;;;;;;;;100602;1324;544991;-81
2022/12/29 15:37:17;;;;;;;18.40;8.50;;;;;;;;;;102584;1302;24439;-79
2022/12/29 15:39:44;;;;;;;17.60;8.40;;;;;;;;;;102483;1294;25236;-83
2022/12/29 15:42:17;;;;;;;19.90;8.80;;;;;;;;;;103098;1288;25390;-81
2022/12/29 15:44:44;;;;;;;19.70;9.70;;;;;;;;;;102649;1294;22482;-80
2022/12/29 15:47:14;;;;;;;18.50;9.00;;;;;;;;;;101335;1319;1602878;-81
2022/12/29 15:49:42;;;;;;;22.80;10.30;;;;;;;;;;102699;1316;24330;-80
2022/12/29 15:52:09;;;;;;;21.90;9.40;;;;;;;;;;102567;1316;24241;-82
2022/12/29 15:54:36;;;;;;;21.00;9.60;;;;;;;;;;102744;1300;22477;-79
2022/12/29 15:57:04;;;;;;;18.40;8.10;;;;;;;;;;102755;1302;22510;-80
2022/12/29 15:59:32;;;;;;;19.60;8.90;;;;;;;;;;102770;1316;22437;-79
2022/12/29 16:02:01;;;;;;;19.80;8.30;;;;;;;;;;106363;1309;22090;-79
2022/12/29 16:04:29;;;;;;;18.40;8.60;;;;;;;;;;105871;1319;22151;-78
2022/12/29 16:07:03;;;;;;;20.60;9.00;;;;;;;;;;105861;1319;22078;-80
2022/12/29 16:09:30;;;;;;;20.30;9.10;;;;;;;;;;105900;1319;22076;-80
2022/12/29 16:12:01;;;;;;;22.70;9.60;;;;;;;;;;105928;1310;22059;-79